Time;durP1;ratioP1;P1;durP2;ratioP2;P2;SDS_P1;SDS_P2;PMS_P1;PMS_P2;Temp;Humidity;BMP_temperature;BMP_pressure;BME280_temperature;BME280_humidity;BME280_pressure;Samples;Min_cycle;Max_cycle;Signal;HPM_P1;HPM_P2
2022/01/10 00:02:32;;;;;;;95.07;36.60;;;;;;;-5.66;89.85;98235.36;2155037;83;21485;-60
2022/01/10 00:05:33;;;;;;;96.30;36.25;;;;;;;-5.66;90.56;98234.95;2134928;83;21012;-60
2022/01/10 00:08:35;;;;;;;86.75;34.15;;;;;;;-5.66;91.98;98234.09;2154782;83;21457;-60
2022/01/10 00:11:36;;;;;;;86.03;33.70;;;;;;;-5.66;91.44;98234.95;2135100;83;21020;-61
2022/01/10 00:14:38;;;;;;;88.37;32.85;;;;;;;-5.67;91.06;98234.97;2154687;83;21202;-60
2022/01/10 00:17:39;;;;;;;90.22;34.58;;;;;;;-5.69;91.71;98237.94;2134875;83;21008;-60
2022/01/10 00:20:41;;;;;;;91.05;36.68;;;;;;;-5.62;92.43;98242.16;2154660;83;20978;-60
2022/01/10 00:23:42;;;;;;;86.37;34.00;;;;;;;-5.64;92.15;98240.89;2134857;83;20993;-60
2022/01/10 00:26:44;;;;;;;89.70;33.60;;;;;;;-5.62;93.13;98245.55;2154687;83;21050;-60
2022/01/10 00:29:45;;;;;;;95.50;37.13;;;;;;;-5.53;96.20;98255.31;2134897;83;21571;-61
2022/01/10 00:32:47;;;;;;;89.15;35.70;;;;;;;-5.52;93.17;98259.58;2154912;83;21003;-60
2022/01/10 00:35:49;;;;;;;74.87;29.32;;;;;;;-5.52;93.66;98265.97;2133106;83;21064;-60
2022/01/10 00:38:50;;;;;;;85.28;35.83;;;;;;;-5.49;93.00;98265.50;2148077;83;21031;-60
2022/01/10 00:41:55;;;;;;;93.03;37.65;;;;;;;-5.46;91.79;98265.92;2131142;84;21043;-60
2022/01/10 00:44:57;;;;;;;93.15;37.67;;;;;;;-5.51;92.03;98267.23;2119745;83;21019;-61
2022/01/10 00:47:58;;;;;;;94.55;37.85;;;;;;;-5.57;92.08;98271.11;2105513;84;21468;-60
2022/01/10 00:51:00;;;;;;;101.55;38.15;;;;;;;-5.55;91.91;98280.88;2148109;83;20979;-60
2022/01/10 00:54:01;;;;;;;101.25;37.95;;;;;;;-5.56;91.70;98279.17;2131243;84;21057;-60
2022/01/10 00:57:03;;;;;;;103.38;40.25;;;;;;;-5.62;91.72;98277.50;2148356;83;21077;-60
2022/01/10 01:00:05;;;;;;;88.55;37.50;;;;;;;-5.60;91.62;98282.19;2130978;84;21056;-60
2022/01/10 01:03:07;;;;;;;91.40;36.15;;;;;;;-5.69;91.88;98286.05;2148087;83;21062;-60
2022/01/10 01:06:11;;;;;;;88.27;34.70;;;;;;;-5.82;91.88;98285.28;2131335;84;21036;-60
2022/01/10 01:09:15;;;;;;;94.58;38.20;;;;;;;-5.93;92.08;98290.85;2147901;83;21063;-60
2022/01/10 01:12:30;;;;;;;100.10;38.42;;;;;;;-5.99;92.50;98291.75;2105377;84;21004;-60
2022/01/10 01:15:23;;;;;;;91.37;36.50;;;;;;;-5.98;93.36;98294.70;2120176;83;20987;-61
2022/01/10 01:18:55;;;;;;;89.28;35.58;;;;;;;-5.82;92.98;98289.11;2105665;84;21488;-60
2022/01/10 01:24:29;;;;;;;91.67;38.50;;;;;;;-5.93;91.52;98290.85;2105969;84;20989;-60
2022/01/10 01:27:32;;;;;;;93.60;38.28;;;;;;;-5.98;91.19;98293.87;2148038;83;21498;-60
2022/01/10 01:30:33;;;;;;;91.63;35.37;;;;;;;-6.10;91.94;98296.03;2131743;84;21119;-60
2022/01/10 01:33:35;;;;;;;84.15;33.35;;;;;;;-6.20;92.78;98295.64;2148006;83;21266;-60
2022/01/10 01:36:37;;;;;;;84.45;33.13;;;;;;;-6.23;92.96;98299.45;2133838;83;21052;-60
2022/01/10 01:39:39;;;;;;;91.42;35.75;;;;;;;-6.22;92.44;98302.44;2154917;83;21461;-60
2022/01/10 01:42:42;;;;;;;90.90;36.35;;;;;;;-6.27;93.30;98307.12;2135197;83;20996;-60
2022/01/10 01:45:44;;;;;;;97.72;38.98;;;;;;;-6.24;93.04;98315.20;2128504;83;21026;-60
2022/01/10 01:48:45;;;;;;;95.75;40.25;;;;;;;-6.28;91.67;98308.40;2135030;83;21591;-61
2022/01/10 01:51:47;;;;;;;123.00;47.73;;;;;;;-6.29;91.15;98321.60;2154798;83;20982;-60
2022/01/10 01:54:48;;;;;;;126.87;46.70;;;;;;;-6.32;91.42;98321.61;2135296;83;21512;-60
2022/01/10 01:57:50;;;;;;;150.75;56.88;;;;;;;-6.24;91.61;98327.13;2154810;83;21050;-60
2022/01/10 02:00:51;;;;;;;138.28;49.27;;;;;;;-6.18;90.88;98325.39;2134606;83;21068;-60
2022/01/10 02:03:53;;;;;;;100.10;40.05;;;;;;;-6.19;90.25;98326.27;2154732;83;21384;-60
2022/01/10 02:06:54;;;;;;;90.35;35.83;;;;;;;-6.25;89.83;98323.70;2134909;83;21043;-60
2022/01/10 02:09:56;;;;;;;91.08;35.58;;;;;;;-6.32;90.24;98332.22;2154861;83;21018;-60
2022/01/10 02:12:57;;;;;;;113.55;45.38;;;;;;;-6.38;90.35;98342.02;2134917;83;20965;-60
2022/01/10 02:16:02;;;;;;;126.60;47.93;;;;;;;-6.37;91.04;98341.61;2155321;83;21007;-60
2022/01/10 02:19:02;;;;;;;85.28;34.58;;;;;;;-6.27;91.84;98345.84;2110755;83;21000;-60
2022/01/10 02:22:04;;;;;;;101.55;34.92;;;;;;;-6.37;91.13;98355.20;2155150;83;21113;-60
2022/01/10 02:25:05;;;;;;;86.15;35.03;;;;;;;-6.43;91.61;98352.67;2135013;83;21068;-60
2022/01/10 02:28:07;;;;;;;69.03;26.07;;;;;;;-6.50;90.99;98356.08;2154693;83;21062;-60
2022/01/10 02:31:09;;;;;;;77.30;32.15;;;;;;;-6.56;91.11;98367.56;2135270;83;21003;-60
2022/01/10 02:34:10;;;;;;;87.40;32.93;;;;;;;-6.88;91.85;98370.51;2155142;83;21067;-60
2022/01/10 02:37:12;;;;;;;73.35;29.27;;;;;;;-6.88;91.85;98370.51;2132176;83;22296;-60
2022/01/10 02:40:15;;;;;;;77.15;30.72;;;;;;;-6.96;90.72;98378.56;2147938;83;21014;-60
2022/01/10 02:43:18;;;;;;;81.17;29.02;;;;;;;-7.03;91.20;98378.12;2131501;84;20992;-60
2022/01/10 02:46:20;;;;;;;76.85;31.82;;;;;;;-7.11;91.72;98378.11;2148132;83;20943;-61
2022/01/10 02:49:21;;;;;;;102.75;38.23;;;;;;;-7.05;91.37;98384.48;2131480;84;21000;-60
2022/01/10 02:52:23;;;;;;;129.53;48.75;;;;;;;-7.04;91.88;98384.92;2148373;83;20968;-60
2022/01/10 02:55:24;;;;;;;171.02;57.40;;;;;;;-6.97;93.09;98381.95;2131301;84;21040;-60
2022/01/10 02:58:26;;;;;;;177.95;64.62;;;;;;;-6.78;91.99;98385.37;2147981;83;21023;-60
2022/01/10 03:01:28;;;;;;;131.15;49.00;;;;;;;-6.74;90.62;98378.16;2131597;84;21008;-60
2022/01/10 03:04:29;;;;;;;114.13;44.70;;;;;;;-6.81;90.22;98386.25;2148500;83;21486;-60
2022/01/10 03:07:30;;;;;;;108.07;43.75;;;;;;;-6.82;90.13;98390.07;2131598;84;20964;-60
2022/01/10 03:10:32;;;;;;;96.02;34.55;;;;;;;-6.80;90.25;98389.63;2148586;83;21427;-60
2022/01/10 03:13:33;;;;;;;99.45;41.00;;;;;;;-6.78;89.41;98390.48;2131749;84;20992;-60
2022/01/10 03:16:35;;;;;;;90.12;33.42;;;;;;;-6.84;89.05;98390.07;2148089;83;21502;-60
2022/01/10 03:19:37;;;;;;;86.75;35.20;;;;;;;-6.86;89.30;98398.56;2131344;84;21027;-60
2022/01/10 03:22:38;;;;;;;99.70;38.20;;;;;;;-6.88;89.30;98405.34;2147924;83;21034;-60
2022/01/10 03:25:39;;;;;;;104.78;39.83;;;;;;;-6.91;88.59;98412.59;2131333;84;21032;-60
2022/01/10 03:28:41;;;;;;;106.67;39.10;;;;;;;-7.02;88.60;98411.70;2148155;83;20987;-60
2022/01/10 03:31:42;;;;;;;117.75;45.67;;;;;;;-7.03;89.29;98418.91;2131832;84;21081;-60
2022/01/10 03:34:44;;;;;;;144.95;50.12;;;;;;;-6.95;89.64;98421.06;2148076;83;21090;-60
2022/01/10 03:37:45;;;;;;;156.15;53.33;;;;;;;-6.94;89.13;98435.94;2134524;83;21062;-60
2022/01/10 03:40:47;;;;;;;103.45;40.60;;;;;;;-6.96;89.02;98440.59;2154971;83;20979;-60
2022/01/10 03:43:48;;;;;;;90.77;35.80;;;;;;;-6.91;88.83;98445.73;2135327;83;21603;-59
2022/01/10 03:46:50;;;;;;;98.03;39.65;;;;;;;-7.00;89.31;98449.08;2154968;83;21010;-60
2022/01/10 03:49:51;;;;;;;107.10;41.85;;;;;;;-7.07;88.92;98449.91;2134986;83;21677;-59
2022/01/10 03:52:53;;;;;;;105.10;39.35;;;;;;;-6.94;89.62;98457.17;2154957;83;20999;-59
2022/01/10 03:55:54;;;;;;;80.40;30.50;;;;;;;-6.92;89.21;98464.83;2135381;83;21567;-60
2022/01/10 03:58:56;;;;;;;104.15;38.08;;;;;;;-6.93;89.22;98470.80;2154558;83;21081;-60
2022/01/10 04:01:58;;;;;;;99.83;39.80;;;;;;;-7.17;88.88;98477.48;2134906;83;21000;-60
2022/01/10 04:04:59;;;;;;;90.97;37.38;;;;;;;-7.23;89.07;98483.41;2154781;83;21032;-60
2022/01/10 04:08:01;;;;;;;73.22;30.23;;;;;;;-7.21;88.81;98485.96;2134873;83;21004;-59
2022/01/10 04:11:02;;;;;;;109.03;39.30;;;;;;;-7.27;88.66;98497.41;2155218;82;21447;-60
2022/01/10 04:14:04;;;;;;;114.13;42.13;;;;;;;-7.23;90.02;98498.70;2135044;83;21052;-60
2022/01/10 04:17:05;;;;;;;100.65;38.78;;;;;;;-7.20;88.98;98504.24;2155093;83;21482;-60
2022/01/10 04:20:07;;;;;;;93.75;36.30;;;;;;;-7.23;89.28;98509.33;2134649;83;21064;-60
2022/01/10 04:23:08;;;;;;;92.02;37.60;;;;;;;-7.24;88.39;98512.31;2154910;83;21434;-59
2022/01/10 04:26:10;;;;;;;91.07;36.27;;;;;;;-7.31;88.04;98517.78;2135294;83;21041;-59
2022/01/10 04:29:12;;;;;;;92.95;36.03;;;;;;;-7.37;87.67;98520.31;2154628;83;21573;-59
2022/01/10 04:32:13;;;;;;;88.93;35.33;;;;;;;-7.55;88.01;98517.64;2135170;83;21000;-59
2022/01/10 04:35:15;;;;;;;93.90;36.53;;;;;;;-7.55;88.01;98517.64;2154863;83;20951;-60
2022/01/10 04:38:16;;;;;;;118.80;42.10;;;;;;;-7.49;87.95;98529.14;2135143;83;21543;-60
2022/01/10 04:41:19;;;;;;;92.57;36.23;;;;;;;-7.44;88.49;98529.16;2154909;82;21031;-59
2022/01/10 04:44:21;;;;;;;132.18;47.93;;;;;;;-7.37;87.99;98537.27;2134887;83;20997;-60
2022/01/10 04:47:22;;;;;;;95.55;36.63;;;;;;;-7.44;87.57;98532.58;2154768;83;21026;-60
2022/01/10 04:50:53;;;;;;;80.97;30.13;;;;;;;-7.49;88.17;98539.33;2135149;83;21016;-60
2022/01/10 04:53:27;;;;;;;87.25;34.23;;;;;;;-7.48;88.38;98548.69;2128406;83;21003;-59
2022/01/10 04:56:30;;;;;;;148.20;51.18;;;;;;;-7.58;88.05;98563.05;2134831;83;21555;-60
2022/01/10 04:59:32;;;;;;;137.82;47.53;;;;;;;-7.72;88.05;98565.91;2154640;83;20975;-60
2022/01/10 05:02:33;;;;;;;106.70;37.33;;;;;;;-7.75;88.40;98579.90;2135265;83;20977;-60
2022/01/10 05:05:35;;;;;;;111.37;40.33;;;;;;;-7.64;88.90;98584.67;2154903;83;21002;-60
2022/01/10 05:08:36;;;;;;;106.05;37.98;;;;;;;-7.53;88.35;98589.83;2134907;83;21555;-60
2022/01/10 05:11:40;;;;;;;98.40;36.97;;;;;;;-7.47;87.88;98591.14;2154938;83;20972;-59
2022/01/10 05:14:41;;;;;;;74.90;29.25;;;;;;;-7.53;87.46;98597.47;2134908;83;21028;-60
2022/01/10 05:17:44;;;;;;;86.12;32.58;;;;;;;-7.60;87.91;98607.18;2154958;83;20944;-59
2022/01/10 05:20:45;;;;;;;74.55;30.10;;;;;;;-7.63;87.88;98611.83;2134750;83;21068;-60
2022/01/10 05:23:47;;;;;;;87.03;33.77;;;;;;;-7.63;87.79;98608.44;2155035;83;21011;-60
2022/01/10 05:26:48;;;;;;;95.17;34.15;;;;;;;-7.65;87.96;98616.06;2134882;83;21001;-60
2022/01/10 05:29:50;;;;;;;92.22;33.73;;;;;;;-7.61;87.83;98622.02;2154569;83;21086;-59
2022/01/10 05:32:52;;;;;;;89.28;34.00;;;;;;;-7.56;88.10;98630.58;2135040;83;21049;-60
2022/01/10 05:35:53;;;;;;;134.43;45.78;;;;;;;-7.49;87.93;98633.61;2154011;81;20980;-59
2022/01/10 05:38:56;;;;;;;129.67;44.33;;;;;;;-7.44;87.74;98640.88;2131484;84;20988;-59
2022/01/10 05:41:57;;;;;;;97.30;35.15;;;;;;;-7.41;87.51;98643.84;2148140;83;21018;-60
2022/01/10 05:44:59;;;;;;;74.60;28.13;;;;;;;-7.35;87.23;98648.58;2131488;84;21023;-60
2022/01/10 05:48:10;;;;;;;85.67;31.33;;;;;;;-7.31;87.05;98646.93;2148202;83;21030;-60
2022/01/10 05:51:04;;;;;;;73.10;28.95;;;;;;;-7.33;86.43;98655.81;2105616;84;21594;-60
2022/01/10 05:54:05;;;;;;;82.50;32.60;;;;;;;-7.41;86.07;98659.14;2148123;83;21490;-60
2022/01/10 05:57:07;;;;;;;68.65;27.50;;;;;;;-7.45;86.17;98662.09;2131613;84;21024;-60
2022/01/10 06:00:08;;;;;;;119.20;37.67;;;;;;;-7.47;86.26;98679.05;2148141;83;21054;-60
2022/01/10 06:03:10;;;;;;;97.97;35.07;;;;;;;-7.52;86.58;98679.02;2132047;84;20996;-60
2022/01/10 06:06:12;;;;;;;87.15;31.52;;;;;;;-7.50;86.58;98687.55;2148277;83;21055;-60
2022/01/10 06:09:13;;;;;;;93.10;32.38;;;;;;;-7.58;86.41;98692.98;2131652;84;21600;-60
2022/01/10 06:12:15;;;;;;;94.97;33.93;;;;;;;-7.60;87.56;98701.04;2148389;83;20971;-59
2022/01/10 06:15:16;;;;;;;93.73;33.60;;;;;;;-7.52;87.43;98708.31;2131765;84;21519;-60
2022/01/10 06:18:17;;;;;;;88.80;32.28;;;;;;;-7.44;86.73;98721.55;2148461;83;20999;-60
2022/01/10 06:21:20;;;;;;;92.72;33.48;;;;;;;-7.41;86.88;98724.99;2131748;84;21575;-60
2022/01/10 06:24:22;;;;;;;89.15;35.08;;;;;;;-7.34;86.11;98739.91;2148185;83;20947;-59
2022/01/10 06:27:24;;;;;;;111.55;43.63;;;;;;;-7.35;86.15;98751.80;2131460;84;21064;-60
2022/01/10 06:30:26;;;;;;;88.33;33.38;;;;;;;-7.27;86.29;98749.31;2147962;83;20988;-60
2022/01/10 06:33:27;;;;;;;85.97;31.50;;;;;;;-7.26;86.47;98761.66;2131796;84;20992;-60
2022/01/10 06:36:29;;;;;;;96.43;38.23;;;;;;;-7.32;86.14;98763.30;2148173;81;21075;-59
2022/01/10 06:39:30;;;;;;;120.53;43.35;;;;;;;-7.28;89.69;98763.32;2131585;84;21565;-60
2022/01/10 06:42:32;;;;;;;108.57;41.00;;;;;;;-7.29;92.97;98775.66;2148270;83;20983;-60
2022/01/10 06:45:34;;;;;;;109.57;43.00;;;;;;;-7.26;100.00;98779.08;2132011;84;21582;-59
2022/01/10 06:48:35;;;;;;;;;;;;;;;-7.17;100.00;98783.41;2150607;83;21039;-59
2022/01/10 06:51:37;;;;;;;97.85;37.90;;;;;;;-7.12;100.00;98793.23;2131631;84;20102;-60
2022/01/10 06:54:38;;;;;;;97.30;38.10;;;;;;;-7.06;100.00;98801.36;2148379;83;20994;-60
2022/01/10 06:57:40;;;;;;;103.05;38.90;;;;;;;-6.94;100.00;98799.34;2131780;84;20996;-60
2022/01/10 07:00:42;;;;;;;99.03;38.60;;;;;;;-6.85;100.00;98811.76;2148325;83;20999;-60
2022/01/10 07:03:44;;;;;;;107.03;39.23;;;;;;;-6.73;100.00;98813.98;2131419;84;21862;-60
2022/01/10 07:06:45;;;;;;;94.05;36.10;;;;;;;-6.57;100.00;98819.63;2148161;83;21047;-60
2022/01/10 07:09:47;;;;;;;94.03;34.53;;;;;;;-6.39;100.00;98827.86;2131695;84;21030;-60
2022/01/10 07:12:49;;;;;;;103.50;39.50;;;;;;;-6.27;100.00;98836.02;2148047;83;21027;-60
2022/01/10 07:15:50;;;;;;;86.65;34.45;;;;;;;-6.11;100.00;98831.42;2131544;84;21467;-60
2022/01/10 07:18:52;;;;;;;92.20;37.55;;;;;;;-5.91;100.00;98840.89;2148049;83;21066;-60
2022/01/10 07:21:54;;;;;;;83.92;30.25;;;;;;;-5.83;100.00;98844.34;2131293;84;21091;-60
2022/01/10 07:24:56;;;;;;;95.25;36.80;;;;;;;-5.71;100.00;98856.32;2148389;83;21165;-60
2022/01/10 07:27:58;;;;;;;98.72;37.55;;;;;;;-5.57;100.00;98861.07;2131552;84;21119;-60
2022/01/10 07:30:59;;;;;;;93.07;36.38;;;;;;;-5.47;100.00;98872.20;2147825;83;20991;-60
2022/01/10 07:34:01;;;;;;;101.33;37.95;;;;;;;-5.29;100.00;98871.83;2131726;84;20992;-60
2022/01/10 07:37:02;;;;;;;129.93;44.67;;;;;;;-5.17;100.00;98882.52;2150534;83;20995;-60
2022/01/10 07:40:04;;;;;;;97.17;36.75;;;;;;;-4.94;100.00;98892.41;2135155;83;22272;-60
2022/01/10 07:43:05;;;;;;;99.50;36.35;;;;;;;-4.77;100.00;98899.26;2154790;83;21037;-60
2022/01/10 07:46:07;;;;;;;89.10;35.38;;;;;;;-4.62;100.00;98904.41;2135027;83;21530;-60
2022/01/10 07:49:10;;;;;;;114.50;42.00;;;;;;;-4.46;100.00;98908.28;2154908;83;21054;-60
2022/01/10 07:52:11;;;;;;;122.10;56.13;;;;;;;-4.31;100.00;98918.95;2134991;83;20985;-60
2022/01/10 07:55:13;;;;;;;94.10;40.48;;;;;;;-4.17;100.00;98919.80;2154733;83;20987;-60
2022/01/10 07:58:14;;;;;;;99.05;39.83;;;;;;;-4.05;100.00;98923.66;2134940;83;21091;-60
2022/01/10 08:01:16;;;;;;;94.65;36.98;;;;;;;-3.96;100.00;98925.80;2154706;83;20991;-60
2022/01/10 08:04:17;;;;;;;92.53;36.88;;;;;;;-3.78;100.00;98923.19;2135043;83;21491;-60
2022/01/10 08:07:19;;;;;;;170.90;64.05;;;;;;;-3.62;100.00;98928.29;2154815;83;20983;-60
2022/01/10 08:10:20;;;;;;;131.82;50.70;;;;;;;-3.58;100.00;98930.00;2134806;83;21452;-60
2022/01/10 08:13:23;;;;;;;184.67;62.63;;;;;;;-3.54;100.00;98936.39;2155007;83;21051;-61
2022/01/10 08:16:24;;;;;;;97.95;38.30;;;;;;;-3.39;100.00;98940.64;2135048;83;21560;-60
2022/01/10 08:19:28;;;;;;;108.87;45.08;;;;;;;-3.27;100.00;98949.17;2154615;83;20990;-60
2022/01/10 08:22:29;;;;;;;100.90;41.68;;;;;;;-3.29;100.00;98959.84;2135143;83;21044;-60
2022/01/10 08:25:30;;;;;;;103.90;42.03;;;;;;;-3.28;100.00;98967.53;2154639;83;21010;-60
2022/01/10 08:28:32;;;;;;;94.28;40.12;;;;;;;-3.22;100.00;98972.67;2134656;83;20965;-60
2022/01/10 08:31:33;;;;;;;98.62;41.85;;;;;;;-3.07;100.00;98985.88;2154653;83;20998;-61
2022/01/10 08:34:35;;;;;;;100.67;41.90;;;;;;;-2.96;100.00;98985.41;2135183;83;21056;-61
2022/01/10 08:37:37;;;;;;;104.65;42.83;;;;;;;-2.69;100.00;98993.83;2151587;82;21050;-61
2022/01/10 08:40:38;;;;;;;91.87;38.15;;;;;;;-2.63;100.00;98997.67;2131494;84;21088;-61
2022/01/10 08:43:40;;;;;;;88.92;36.83;;;;;;;-2.57;100.00;99003.22;2147701;83;20987;-61
2022/01/10 08:46:41;;;;;;;89.22;37.05;;;;;;;-2.54;100.00;99010.03;2131528;84;21559;-61
2022/01/10 08:49:45;;;;;;;86.05;34.98;;;;;;;-2.50;100.00;99006.17;2147971;82;21019;-61
2022/01/10 08:52:48;;;;;;;79.07;33.93;;;;;;;-2.42;100.00;99009.98;2131355;84;21115;-61
2022/01/10 08:55:49;;;;;;;96.28;36.25;;;;;;;-2.29;100.00;99012.89;2148004;83;21708;-61
2022/01/10 08:58:51;;;;;;;100.10;36.28;;;;;;;-2.15;100.00;99015.83;2131357;84;20992;-61
2022/01/10 09:01:53;;;;;;;104.00;37.63;;;;;;;-2.13;100.00;99020.06;2148271;83;21545;-61
2022/01/10 09:04:54;;;;;;;104.17;40.70;;;;;;;-2.05;100.00;99023.89;2131504;84;21000;-61
2022/01/10 09:07:58;;;;;;;86.15;33.18;;;;;;;-1.92;100.00;99024.22;2147946;83;21561;-61
2022/01/10 09:10:59;;;;;;;77.85;29.80;;;;;;;-1.67;100.00;99029.16;2105762;84;21495;-61
2022/01/10 09:14:01;;;;;;;71.70;29.72;;;;;;;-1.66;100.00;99027.02;2148011;83;21027;-61
2022/01/10 09:17:03;;;;;;;77.75;31.23;;;;;;;-1.64;100.00;99035.59;2131363;84;21476;-61
2022/01/10 09:20:04;;;;;;;69.30;29.63;;;;;;;-1.61;100.00;99035.98;2147919;83;21043;-61
2022/01/10 09:23:06;;;;;;;68.43;28.23;;;;;;;-1.55;100.00;99041.09;2131761;84;21474;-61
2022/01/10 09:26:08;;;;;;;69.60;28.77;;;;;;;-1.56;100.00;99049.67;2147895;83;20967;-61
2022/01/10 09:29:09;;;;;;;82.75;32.73;;;;;;;-1.46;100.00;99059.02;2131255;83;21497;-61
2022/01/10 09:32:11;;;;;;;67.62;27.60;;;;;;;-1.50;100.00;99059.06;2148021;83;20977;-61
2022/01/10 09:35:12;;;;;;;64.10;26.52;;;;;;;-1.41;100.00;99067.56;2131398;84;21088;-61
2022/01/10 09:38:13;;;;;;;62.73;25.65;;;;;;;-1.42;100.00;99080.00;2151714;81;21058;-61
2022/01/10 09:41:15;;;;;;;65.07;25.30;;;;;;;-1.49;100.00;99076.21;2135259;83;21048;-61
2022/01/10 09:44:17;;;;;;;71.22;27.65;;;;;;;-1.57;100.00;99086.55;2155222;83;21553;-61
2022/01/10 09:47:19;;;;;;;68.20;26.77;;;;;;;-1.65;100.00;99078.02;2134978;83;21043;-61
2022/01/10 09:50:20;;;;;;;68.20;26.12;;;;;;;-1.64;100.00;99086.17;2155089;82;21026;-61
2022/01/10 09:53:22;;;;;;;66.42;25.90;;;;;;;-1.62;100.00;99092.17;2134945;83;20984;-61
2022/01/10 09:56:23;;;;;;;63.37;25.00;;;;;;;-1.55;100.00;99098.98;2155351;83;21497;-61
2022/01/10 09:59:25;;;;;;;62.23;25.97;;;;;;;-1.52;100.00;99093.81;2134854;83;21020;-61
2022/01/10 10:02:27;;;;;;;59.33;24.00;;;;;;;-1.55;100.00;99105.41;2154841;83;21506;-61
2022/01/10 10:05:29;;;;;;;59.70;25.37;;;;;;;-1.62;100.00;99109.73;2134968;83;21020;-61
2022/01/10 10:08:30;;;;;;;58.02;25.32;;;;;;;-1.52;100.00;99115.67;2154894;83;20979;-61
2022/01/10 10:11:32;;;;;;;58.70;23.70;;;;;;;-1.48;100.00;99114.80;2135031;83;21096;-61
2022/01/10 10:14:33;;;;;;;57.38;24.27;;;;;;;-1.49;100.00;99118.22;2154691;83;21018;-61
2022/01/10 10:17:35;;;;;;;61.70;25.17;;;;;;;-1.47;100.00;99125.48;2135099;83;21057;-61
2022/01/10 10:20:37;;;;;;;64.00;24.20;;;;;;;-1.41;100.00;99134.88;2155023;83;20967;-61
2022/01/10 10:23:40;;;;;;;54.95;23.27;;;;;;;-1.37;100.00;99135.28;2134899;83;21460;-62
2022/01/10 10:26:41;;;;;;;57.95;22.42;;;;;;;-1.34;100.00;99135.25;2128786;83;21361;-61
2022/01/10 10:29:43;;;;;;;61.65;23.32;;;;;;;-1.21;100.00;99128.28;2135039;83;21131;-61
2022/01/10 10:32:45;;;;;;;55.30;21.48;;;;;;;-1.15;100.00;99121.82;2154711;83;21517;-61
2022/01/10 10:35:46;;;;;;;59.37;22.97;;;;;;;-1.11;100.00;99131.64;2135119;83;21060;-62
2022/01/10 10:38:48;;;;;;;55.83;22.53;;;;;;;-1.15;100.00;99134.69;2154876;83;21537;-62
2022/01/10 10:41:49;;;;;;;53.63;22.67;;;;;;;-1.10;100.00;99139.80;2134830;83;21051;-61
2022/01/10 10:44:51;;;;;;;57.30;21.73;;;;;;;-1.08;100.00;99134.19;2154976;83;21034;-62
2022/01/10 10:47:52;;;;;;;54.95;21.60;;;;;;;-0.96;100.00;99142.22;2134914;83;20988;-61
2022/01/10 10:50:54;;;;;;;57.17;23.38;;;;;;;-0.97;100.00;99143.11;2154761;83;21062;-61
2022/01/10 10:53:56;;;;;;;55.38;22.82;;;;;;;-0.89;100.00;99146.45;2135200;83;21234;-61
2022/01/10 10:56:58;;;;;;;57.33;23.27;;;;;;;-0.82;100.00;99154.57;2154751;83;21056;-61
2022/01/10 11:00:00;;;;;;;56.58;22.50;;;;;;;-0.73;100.00;99153.63;2135110;83;21012;-61
2022/01/10 11:03:01;;;;;;;52.93;22.42;;;;;;;-0.67;100.00;99161.28;2154867;83;21030;-61
2022/01/10 11:06:05;;;;;;;54.60;22.33;;;;;;;-0.76;100.00;99163.93;2135452;83;21004;-61
2022/01/10 11:09:06;;;;;;;53.90;22.48;;;;;;;-0.77;100.00;99160.95;2128629;83;21010;-62
2022/01/10 11:12:08;;;;;;;56.73;22.63;;;;;;;-0.73;100.00;99166.06;2134934;83;21083;-61
2022/01/10 11:15:10;;;;;;;53.13;23.35;;;;;;;-0.71;100.00;99178.48;2155000;83;21308;-61
2022/01/10 11:18:12;;;;;;;53.45;22.27;;;;;;;-0.83;100.00;99179.02;2135034;83;21044;-62
2022/01/10 11:21:13;;;;;;;55.88;22.95;;;;;;;-0.92;100.00;99174.40;2154872;83;21102;-62
2022/01/10 11:24:15;;;;;;;57.47;23.03;;;;;;;-0.93;100.00;99182.14;2135312;83;21036;-62
2022/01/10 11:27:17;;;;;;;55.83;22.98;;;;;;;-0.96;100.00;99186.88;2154916;83;21575;-62
2022/01/10 11:30:19;;;;;;;53.65;22.05;;;;;;;-0.90;100.00;99183.40;2135064;83;20988;-62
2022/01/10 11:33:21;;;;;;;58.55;23.40;;;;;;;-0.98;100.00;99191.17;2154558;83;21494;-61
2022/01/10 11:36:24;;;;;;;55.65;23.98;;;;;;;-1.05;100.00;99189.09;2134655;83;21024;-61
2022/01/10 11:39:26;;;;;;;55.23;22.65;;;;;;;-1.10;100.00;99197.72;2148801;83;21107;-61
2022/01/10 11:42:27;;;;;;;59.65;24.32;;;;;;;-1.13;100.00;99197.30;2131342;84;20969;-62
2022/01/10 11:45:29;;;;;;;60.55;24.67;;;;;;;-1.16;100.00;99203.77;2148208;83;20951;-61
2022/01/10 11:48:30;;;;;;;57.38;25.12;;;;;;;-1.20;100.00;99209.80;2131307;84;20996;-62
2022/01/10 11:51:31;;;;;;;55.55;24.95;;;;;;;-1.20;100.00;99211.09;2148173;83;21498;-62
2022/01/10 11:54:33;;;;;;;60.15;24.55;;;;;;;-1.20;100.00;99212.82;2131338;84;20992;-62
2022/01/10 11:57:34;;;;;;;57.25;24.07;;;;;;;-1.24;100.00;99217.97;2147885;83;21494;-62
2022/01/10 12:00:36;;;;;;;54.45;25.15;;;;;;;-1.29;100.00;99219.73;2131343;84;21104;-62
2022/01/10 12:03:38;;;;;;;56.02;23.50;;;;;;;-1.26;100.00;99226.14;2148012;83;21518;-62
2022/01/10 12:06:39;;;;;;;56.30;21.95;;;;;;;-1.21;100.00;99222.24;2131499;84;21028;-62
2022/01/10 12:09:41;;;;;;;52.25;22.40;;;;;;;-1.22;100.00;99232.98;2147860;83;21039;-61
2022/01/10 12:12:43;;;;;;;53.63;22.43;;;;;;;-1.35;100.00;99235.63;2131807;84;21004;-62
2022/01/10 12:15:45;;;;;;;57.43;23.62;;;;;;;-1.35;100.00;99235.63;2148052;83;21689;-61
2022/01/10 12:18:46;;;;;;;58.38;24.63;;;;;;;-1.37;100.00;99241.23;2131495;84;21607;-61
2022/01/10 12:21:48;;;;;;;58.00;24.87;;;;;;;-1.39;100.00;99247.69;2148114;83;21045;-62
2022/01/10 12:24:50;;;;;;;56.83;23.75;;;;;;;-1.40;100.00;99249.83;2131563;84;21576;-62
2022/01/10 12:27:54;;;;;;;57.30;23.52;;;;;;;-1.38;100.00;99250.66;2148107;83;21003;-61
2022/01/10 12:30:57;;;;;;;52.50;21.93;;;;;;;-1.41;100.00;99255.83;2105740;84;21000;-62
2022/01/10 12:33:58;;;;;;;55.73;22.40;;;;;;;-1.46;100.00;99259.72;2119655;83;21506;-61
2022/01/10 12:37:00;;;;;;;57.15;23.40;;;;;;;-1.43;100.00;99271.72;2131394;84;20996;-61
2022/01/10 12:40:02;;;;;;;57.13;23.77;;;;;;;-1.47;100.00;99270.86;2147742;81;21022;-61
2022/01/10 12:43:03;;;;;;;55.98;22.67;;;;;;;-1.49;100.00;99277.75;2131274;84;21537;-61
2022/01/10 12:46:05;;;;;;;57.88;22.85;;;;;;;-1.50;100.00;99281.17;2148029;83;20991;-62
2022/01/10 12:49:07;;;;;;;56.23;22.27;;;;;;;-1.55;100.00;99288.08;2131397;84;21534;-62
2022/01/10 12:52:08;;;;;;;53.15;21.35;;;;;;;-1.61;100.00;99295.80;2147978;83;21027;-63
2022/01/10 12:55:10;;;;;;;54.05;21.33;;;;;;;-1.63;100.00;99302.69;2131232;84;21567;-64
2022/01/10 12:58:12;;;;;;;47.67;19.15;;;;;;;-1.67;100.00;99299.25;2147850;83;21014;-64
2022/01/10 13:01:13;;;;;;;47.62;19.20;;;;;;;-1.71;100.00;99305.30;2131082;84;21071;-64
2022/01/10 13:04:15;;;;;;;50.00;20.90;;;;;;;-1.76;100.00;99306.58;2148439;83;21109;-64
2022/01/10 13:07:17;;;;;;;49.48;20.25;;;;;;;-1.79;100.00;99316.03;2131234;84;21002;-64
2022/01/10 13:13:22;;;;;;;63.90;26.20;;;;;;;-1.88;100.00;99325.92;2105607;84;21038;-64
2022/01/10 13:16:24;;;;;;;58.90;23.65;;;;;;;-1.88;100.00;99328.48;2148150;83;21015;-64
2022/01/10 13:19:27;;;;;;;47.60;19.77;;;;;;;-1.84;100.00;99331.89;2131296;84;21079;-63
2022/01/10 13:22:29;;;;;;;47.53;19.17;;;;;;;-1.85;100.00;99343.03;2147764;83;21268;-64
2022/01/10 13:25:30;;;;;;;45.20;18.25;;;;;;;-1.83;100.00;99347.31;2131471;84;21547;-64
2022/01/10 13:28:32;;;;;;;50.40;21.12;;;;;;;-1.86;100.00;99347.33;2147746;83;21027;-64
2022/01/10 13:31:33;;;;;;;44.83;18.50;;;;;;;-1.88;100.00;99364.49;2131430;84;21025;-64
2022/01/10 13:34:35;;;;;;;47.88;19.92;;;;;;;-1.90;100.00;99366.63;2148037;83;21542;-64
2022/01/10 13:37:36;;;;;;;44.65;18.25;;;;;;;-1.94;100.00;99372.19;2131450;84;20988;-64
2022/01/10 13:40:40;;;;;;;50.63;21.00;;;;;;;-1.95;100.00;99387.22;2148150;83;20999;-64
2022/01/10 13:43:41;;;;;;;49.35;18.80;;;;;;;-1.88;100.00;99391.49;2131545;84;21048;-63
2022/01/10 13:46:43;;;;;;;46.98;18.07;;;;;;;-1.81;100.00;99394.48;2148102;83;21554;-64
2022/01/10 13:49:45;;;;;;;47.53;19.20;;;;;;;-1.73;100.00;99397.47;2131647;84;21035;-64
2022/01/10 13:52:48;;;;;;;44.70;17.20;;;;;;;-1.70;100.00;99404.73;2148121;83;20984;-63
2022/01/10 13:55:50;;;;;;;41.18;15.25;;;;;;;-1.65;100.00;99411.14;2131184;84;21130;-64